sensor_id;sensor_type;location;lat;lon;timestamp;P1;durP1;ratioP1;P2;durP2;ratioP2
19965;SDS011;10144;50.874;4.762;2024-03-07T00:02:47;107.73;;;34.00;;
19965;SDS011;10144;50.874;4.762;2024-03-07T00:05:15;103.23;;;33.30;;
19965;SDS011;10144;50.874;4.762;2024-03-07T00:07:47;99.27;;;31.53;;
19965;SDS011;10144;50.874;4.762;2024-03-07T00:10:16;102.50;;;32.33;;
19965;SDS011;10144;50.874;4.762;2024-03-07T00:12:42;106.70;;;34.00;;
19965;SDS011;10144;50.874;4.762;2024-03-07T00:15:12;117.13;;;35.20;;
19965;SDS011;10144;50.874;4.762;2024-03-07T00:17:41;106.73;;;32.80;;
19965;SDS011;10144;50.874;4.762;2024-03-07T00:20:13;105.67;;;33.80;;
19965;SDS011;10144;50.874;4.762;2024-03-07T00:22:45;98.17;;;32.67;;
19965;SDS011;10144;50.874;4.762;2024-03-07T00:25:14;107.20;;;32.67;;
19965;SDS011;10144;50.874;4.762;2024-03-07T00:27:44;100.00;;;31.27;;
19965;SDS011;10144;50.874;4.762;2024-03-07T00:32:42;107.13;;;33.27;;
19965;SDS011;10144;50.874;4.762;2024-03-07T00:40:09;108.33;;;34.43;;
19965;SDS011;10144;50.874;4.762;2024-03-07T00:42:41;108.20;;;34.07;;
19965;SDS011;10144;50.874;4.762;2024-03-07T00:45:08;107.33;;;34.33;;
19965;SDS011;10144;50.874;4.762;2024-03-07T00:47:37;115.33;;;34.27;;
19965;SDS011;10144;50.874;4.762;2024-03-07T00:52:36;108.03;;;33.57;;
19965;SDS011;10144;50.874;4.762;2024-03-07T00:55:15;118.70;;;36.07;;
19965;SDS011;10144;50.874;4.762;2024-03-07T00:57:47;115.83;;;35.73;;
19965;SDS011;10144;50.874;4.762;2024-03-07T01:00:24;118.93;;;37.40;;
19965;SDS011;10144;50.874;4.762;2024-03-07T01:02:51;115.17;;;35.77;;
19965;SDS011;10144;50.874;4.762;2024-03-07T01:05:24;117.33;;;34.10;;
19965;SDS011;10144;50.874;4.762;2024-03-07T01:10:20;114.67;;;36.60;;
19965;SDS011;10144;50.874;4.762;2024-03-07T01:12:48;117.83;;;36.23;;
19965;SDS011;10144;50.874;4.762;2024-03-07T01:20:12;113.27;;;35.03;;
19965;SDS011;10144;50.874;4.762;2024-03-07T01:22:40;123.83;;;35.40;;
19965;SDS011;10144;50.874;4.762;2024-03-07T01:25:06;118.50;;;34.83;;
19965;SDS011;10144;50.874;4.762;2024-03-07T01:27:38;123.87;;;37.13;;
19965;SDS011;10144;50.874;4.762;2024-03-07T01:35:06;119.50;;;36.37;;
19965;SDS011;10144;50.874;4.762;2024-03-07T01:42:39;131.20;;;37.87;;
19965;SDS011;10144;50.874;4.762;2024-03-07T01:45:11;150.63;;;39.17;;
19965;SDS011;10144;50.874;4.762;2024-03-07T01:47:38;145.37;;;40.70;;
19965;SDS011;10144;50.874;4.762;2024-03-07T01:50:06;149.50;;;39.17;;
19965;SDS011;10144;50.874;4.762;2024-03-07T01:52:51;135.83;;;39.50;;
19965;SDS011;10144;50.874;4.762;2024-03-07T01:58:16;144.93;;;39.83;;
19965;SDS011;10144;50.874;4.762;2024-03-07T02:00:47;149.83;;;40.67;;
19965;SDS011;10144;50.874;4.762;2024-03-07T02:03:15;145.67;;;39.83;;
19965;SDS011;10144;50.874;4.762;2024-03-07T02:08:11;141.90;;;40.83;;
19965;SDS011;10144;50.874;4.762;2024-03-07T02:10:43;151.97;;;41.37;;
19965;SDS011;10144;50.874;4.762;2024-03-07T02:15:40;146.73;;;41.07;;
19965;SDS011;10144;50.874;4.762;2024-03-07T02:18:13;144.93;;;41.53;;
19965;SDS011;10144;50.874;4.762;2024-03-07T02:23:14;159.10;;;41.73;;
19965;SDS011;10144;50.874;4.762;2024-03-07T02:25:46;150.77;;;41.13;;
19965;SDS011;10144;50.874;4.762;2024-03-07T02:28:15;151.83;;;40.53;;
19965;SDS011;10144;50.874;4.762;2024-03-07T02:33:11;159.80;;;42.70;;
19965;SDS011;10144;50.874;4.762;2024-03-07T02:35:43;152.73;;;41.93;;
19965;SDS011;10144;50.874;4.762;2024-03-07T02:38:09;155.23;;;42.17;;
19965;SDS011;10144;50.874;4.762;2024-03-07T02:40:40;149.50;;;41.03;;
19965;SDS011;10144;50.874;4.762;2024-03-07T02:43:06;146.47;;;40.33;;
19965;SDS011;10144;50.874;4.762;2024-03-07T02:45:50;155.10;;;41.47;;
19965;SDS011;10144;50.874;4.762;2024-03-07T02:48:21;158.80;;;41.93;;
19965;SDS011;10144;50.874;4.762;2024-03-07T02:50:50;160.77;;;44.20;;
19965;SDS011;10144;50.874;4.762;2024-03-07T02:53:22;154.13;;;43.00;;
19965;SDS011;10144;50.874;4.762;2024-03-07T02:55:51;155.03;;;42.63;;
19965;SDS011;10144;50.874;4.762;2024-03-07T03:06:37;158.97;;;43.20;;
19965;SDS011;10144;50.874;4.762;2024-03-07T03:09:03;163.90;;;42.40;;
19965;SDS011;10144;50.874;4.762;2024-03-07T03:14:05;170.70;;;44.90;;
19965;SDS011;10144;50.874;4.762;2024-03-07T03:16:32;173.97;;;43.60;;
19965;SDS011;10144;50.874;4.762;2024-03-07T03:19:04;172.20;;;44.57;;
19965;SDS011;10144;50.874;4.762;2024-03-07T03:24:22;166.40;;;43.63;;
19965;SDS011;10144;50.874;4.762;2024-03-07T03:26:49;171.33;;;43.27;;
19965;SDS011;10144;50.874;4.762;2024-03-07T03:31:49;168.97;;;43.50;;
19965;SDS011;10144;50.874;4.762;2024-03-07T03:34:18;178.27;;;43.97;;
19965;SDS011;10144;50.874;4.762;2024-03-07T03:36:46;177.27;;;44.40;;
19965;SDS011;10144;50.874;4.762;2024-03-07T03:39:15;165.93;;;41.53;;
19965;SDS011;10144;50.874;4.762;2024-03-07T03:41:43;167.27;;;41.87;;
19965;SDS011;10144;50.874;4.762;2024-03-07T03:44:11;171.63;;;45.30;;
19965;SDS011;10144;50.874;4.762;2024-03-07T03:46:43;168.10;;;42.10;;
19965;SDS011;10144;50.874;4.762;2024-03-07T03:49:15;180.07;;;44.90;;
19965;SDS011;10144;50.874;4.762;2024-03-07T03:51:46;177.67;;;44.07;;
19965;SDS011;10144;50.874;4.762;2024-03-07T03:54:14;181.43;;;42.07;;
19965;SDS011;10144;50.874;4.762;2024-03-07T03:56:41;168.53;;;43.43;;
19965;SDS011;10144;50.874;4.762;2024-03-07T04:01:39;180.37;;;45.70;;
19965;SDS011;10144;50.874;4.762;2024-03-07T04:04:06;170.77;;;43.60;;
19965;SDS011;10144;50.874;4.762;2024-03-07T04:06:38;172.37;;;44.03;;
19965;SDS011;10144;50.874;4.762;2024-03-07T04:09:06;176.63;;;45.23;;
19965;SDS011;10144;50.874;4.762;2024-03-07T04:11:34;174.80;;;46.17;;
19965;SDS011;10144;50.874;4.762;2024-03-07T04:14:05;170.57;;;43.20;;
19965;SDS011;10144;50.874;4.762;2024-03-07T04:16:31;160.07;;;40.60;;
19965;SDS011;10144;50.874;4.762;2024-03-07T04:26:23;187.07;;;44.23;;
19965;SDS011;10144;50.874;4.762;2024-03-07T04:31:23;175.83;;;43.90;;
19965;SDS011;10144;50.874;4.762;2024-03-07T04:36:21;175.03;;;42.63;;
19965;SDS011;10144;50.874;4.762;2024-03-07T04:38:53;185.37;;;43.87;;
19965;SDS011;10144;50.874;4.762;2024-03-07T04:41:20;185.37;;;44.33;;
19965;SDS011;10144;50.874;4.762;2024-03-07T04:43:46;199.03;;;44.73;;
19965;SDS011;10144;50.874;4.762;2024-03-07T04:46:15;190.53;;;45.10;;
19965;SDS011;10144;50.874;4.762;2024-03-07T04:51:33;183.40;;;45.30;;
19965;SDS011;10144;50.874;4.762;2024-03-07T04:54:02;186.10;;;44.87;;
19965;SDS011;10144;50.874;4.762;2024-03-07T04:56:28;202.00;;;47.83;;
19965;SDS011;10144;50.874;4.762;2024-03-07T04:58:57;215.60;;;47.37;;
19965;SDS011;10144;50.874;4.762;2024-03-07T05:01:29;205.43;;;47.60;;
19965;SDS011;10144;50.874;4.762;2024-03-07T05:03:59;194.90;;;43.57;;
19965;SDS011;10144;50.874;4.762;2024-03-07T05:06:26;213.90;;;46.50;;
19965;SDS011;10144;50.874;4.762;2024-03-07T05:08:54;220.63;;;48.47;;
19965;SDS011;10144;50.874;4.762;2024-03-07T05:13:50;216.63;;;45.73;;
19965;SDS011;10144;50.874;4.762;2024-03-07T05:16:22;211.67;;;46.47;;
19965;SDS011;10144;50.874;4.762;2024-03-07T05:18:49;205.83;;;46.83;;
19965;SDS011;10144;50.874;4.762;2024-03-07T05:21:19;199.83;;;45.00;;
19965;SDS011;10144;50.874;4.762;2024-03-07T05:24:06;230.30;;;46.67;;
19965;SDS011;10144;50.874;4.762;2024-03-07T05:26:36;237.40;;;43.70;;
19965;SDS011;10144;50.874;4.762;2024-03-07T05:29:07;353.43;;;44.60;;
19965;SDS011;10144;50.874;4.762;2024-03-07T05:31:34;462.40;;;50.23;;
19965;SDS011;10144;50.874;4.762;2024-03-07T05:39:24;461.47;;;53.03;;
19965;SDS011;10144;50.874;4.762;2024-03-07T05:41:53;349.53;;;46.03;;
19965;SDS011;10144;50.874;4.762;2024-03-07T05:44:24;475.97;;;48.17;;
19965;SDS011;10144;50.874;4.762;2024-03-07T05:46:56;463.87;;;51.90;;
19965;SDS011;10144;50.874;4.762;2024-03-07T05:49:22;481.80;;;51.97;;
19965;SDS011;10144;50.874;4.762;2024-03-07T05:51:54;597.90;;;54.23;;
19965;SDS011;10144;50.874;4.762;2024-03-07T05:54:26;723.13;;;59.17;;
19965;SDS011;10144;50.874;4.762;2024-03-07T05:56:54;639.50;;;56.63;;
19965;SDS011;10144;50.874;4.762;2024-03-07T05:59:23;489.07;;;51.30;;
19965;SDS011;10144;50.874;4.762;2024-03-07T06:04:25;613.10;;;56.37;;
19965;SDS011;10144;50.874;4.762;2024-03-07T06:06:50;637.10;;;57.10;;
19965;SDS011;10144;50.874;4.762;2024-03-07T06:09:19;542.90;;;44.87;;
19965;SDS011;10144;50.874;4.762;2024-03-07T06:11:46;565.47;;;51.57;;
19965;SDS011;10144;50.874;4.762;2024-03-07T06:14:18;939.20;;;66.63;;
19965;SDS011;10144;50.874;4.762;2024-03-07T06:16:48;920.70;;;66.67;;
19965;SDS011;10144;50.874;4.762;2024-03-07T06:21:45;627.47;;;51.13;;
19965;SDS011;10144;50.874;4.762;2024-03-07T06:24:13;605.07;;;50.93;;
19965;SDS011;10144;50.874;4.762;2024-03-07T06:29:37;712.70;;;54.33;;
19965;SDS011;10144;50.874;4.762;2024-03-07T06:32:09;892.27;;;64.30;;
19965;SDS011;10144;50.874;4.762;2024-03-07T06:39:49;523.00;;;51.70;;
19965;SDS011;10144;50.874;4.762;2024-03-07T06:42:17;480.00;;;42.87;;
19965;SDS011;10144;50.874;4.762;2024-03-07T06:44:46;696.43;;;56.63;;
19965;SDS011;10144;50.874;4.762;2024-03-07T06:47:13;797.23;;;56.33;;
19965;SDS011;10144;50.874;4.762;2024-03-07T06:54:39;561.83;;;50.73;;
19965;SDS011;10144;50.874;4.762;2024-03-07T06:57:05;467.30;;;44.83;;
19965;SDS011;10144;50.874;4.762;2024-03-07T06:59:36;511.87;;;45.33;;
19965;SDS011;10144;50.874;4.762;2024-03-07T07:02:05;438.40;;;42.73;;
19965;SDS011;10144;50.874;4.762;2024-03-07T07:04:30;557.07;;;48.87;;
19965;SDS011;10144;50.874;4.762;2024-03-07T07:07:06;310.80;;;38.20;;
19965;SDS011;10144;50.874;4.762;2024-03-07T07:09:38;335.73;;;43.70;;
19965;SDS011;10144;50.874;4.762;2024-03-07T07:12:10;436.87;;;41.43;;
19965;SDS011;10144;50.874;4.762;2024-03-07T07:14:39;541.13;;;47.10;;
19965;SDS011;10144;50.874;4.762;2024-03-07T07:17:05;402.40;;;39.90;;
19965;SDS011;10144;50.874;4.762;2024-03-07T07:19:30;230.87;;;36.20;;
19965;SDS011;10144;50.874;4.762;2024-03-07T07:22:00;440.60;;;52.00;;
19965;SDS011;10144;50.874;4.762;2024-03-07T07:24:29;474.80;;;54.20;;
19965;SDS011;10144;50.874;4.762;2024-03-07T07:26:55;382.03;;;42.33;;
19965;SDS011;10144;50.874;4.762;2024-03-07T07:31:51;362.47;;;40.53;;
19965;SDS011;10144;50.874;4.762;2024-03-07T07:34:19;582.80;;;50.90;;
19965;SDS011;10144;50.874;4.762;2024-03-07T07:36:47;365.93;;;38.37;;
19965;SDS011;10144;50.874;4.762;2024-03-07T07:41:45;319.77;;;42.80;;
19965;SDS011;10144;50.874;4.762;2024-03-07T07:44:10;248.30;;;37.60;;
19965;SDS011;10144;50.874;4.762;2024-03-07T07:46:36;253.13;;;39.40;;
19965;SDS011;10144;50.874;4.762;2024-03-07T07:49:03;228.70;;;39.27;;
19965;SDS011;10144;50.874;4.762;2024-03-07T07:51:28;241.10;;;43.30;;
19965;SDS011;10144;50.874;4.762;2024-03-07T07:53:55;231.47;;;41.60;;
19965;SDS011;10144;50.874;4.762;2024-03-07T07:56:27;189.57;;;39.13;;
19965;SDS011;10144;50.874;4.762;2024-03-07T07:58:55;193.20;;;41.27;;
19965;SDS011;10144;50.874;4.762;2024-03-07T08:01:21;174.03;;;38.37;;
19965;SDS011;10144;50.874;4.762;2024-03-07T08:03:47;211.37;;;42.23;;
19965;SDS011;10144;50.874;4.762;2024-03-07T08:06:19;195.40;;;41.13;;
19965;SDS011;10144;50.874;4.762;2024-03-07T08:08:46;215.97;;;50.87;;
19965;SDS011;10144;50.874;4.762;2024-03-07T08:11:15;172.97;;;40.10;;
19965;SDS011;10144;50.874;4.762;2024-03-07T08:13:40;166.27;;;37.93;;
19965;SDS011;10144;50.874;4.762;2024-03-07T08:16:06;183.80;;;44.23;;
19965;SDS011;10144;50.874;4.762;2024-03-07T08:18:32;200.63;;;46.47;;
19965;SDS011;10144;50.874;4.762;2024-03-07T08:21:01;186.27;;;43.13;;
19965;SDS011;10144;50.874;4.762;2024-03-07T08:23:26;162.80;;;38.73;;
19965;SDS011;10144;50.874;4.762;2024-03-07T08:25:57;175.30;;;41.17;;
19965;SDS011;10144;50.874;4.762;2024-03-07T08:28:24;188.20;;;45.10;;
19965;SDS011;10144;50.874;4.762;2024-03-07T08:30:50;170.57;;;43.10;;
19965;SDS011;10144;50.874;4.762;2024-03-07T08:33:16;159.97;;;40.60;;
19965;SDS011;10144;50.874;4.762;2024-03-07T08:35:47;163.73;;;39.93;;
19965;SDS011;10144;50.874;4.762;2024-03-07T08:38:16;136.27;;;36.77;;
19965;SDS011;10144;50.874;4.762;2024-03-07T08:40:51;129.20;;;35.87;;
19965;SDS011;10144;50.874;4.762;2024-03-07T08:43:22;152.93;;;43.07;;
19965;SDS011;10144;50.874;4.762;2024-03-07T08:45:51;150.20;;;41.67;;
19965;SDS011;10144;50.874;4.762;2024-03-07T08:48:16;127.10;;;34.67;;
19965;SDS011;10144;50.874;4.762;2024-03-07T08:50:45;142.63;;;41.00;;
19965;SDS011;10144;50.874;4.762;2024-03-07T08:53:17;135.07;;;41.33;;
19965;SDS011;10144;50.874;4.762;2024-03-07T08:55:44;120.97;;;34.27;;
19965;SDS011;10144;50.874;4.762;2024-03-07T08:58:18;122.53;;;35.63;;
19965;SDS011;10144;50.874;4.762;2024-03-07T09:00:44;130.97;;;39.27;;
19965;SDS011;10144;50.874;4.762;2024-03-07T09:03:13;116.07;;;36.90;;
19965;SDS011;10144;50.874;4.762;2024-03-07T09:05:41;110.47;;;37.33;;
19965;SDS011;10144;50.874;4.762;2024-03-07T09:08:09;83.60;;;28.03;;
19965;SDS011;10144;50.874;4.762;2024-03-07T09:10:34;111.97;;;39.23;;
19965;SDS011;10144;50.874;4.762;2024-03-07T09:13:00;78.90;;;27.07;;
19965;SDS011;10144;50.874;4.762;2024-03-07T09:15:26;95.40;;;34.23;;
19965;SDS011;10144;50.874;4.762;2024-03-07T09:17:57;81.07;;;28.47;;
19965;SDS011;10144;50.874;4.762;2024-03-07T09:20:23;93.83;;;35.30;;
19965;SDS011;10144;50.874;4.762;2024-03-07T09:22:51;78.13;;;28.73;;
19965;SDS011;10144;50.874;4.762;2024-03-07T09:25:19;77.57;;;28.87;;
19965;SDS011;10144;50.874;4.762;2024-03-07T09:27:48;74.68;;;28.08;;
19965;SDS011;10144;50.874;4.762;2024-03-07T09:30:17;73.35;;;28.25;;
19965;SDS011;10144;50.874;4.762;2024-03-07T09:32:52;64.00;;;26.30;;
19965;SDS011;10144;50.874;4.762;2024-03-07T09:35:26;68.72;;;28.05;;
19965;SDS011;10144;50.874;4.762;2024-03-07T09:37:55;61.13;;;26.88;;
19965;SDS011;10144;50.874;4.762;2024-03-07T09:40:24;64.65;;;28.92;;
19965;SDS011;10144;50.874;4.762;2024-03-07T09:45:28;63.70;;;27.75;;
19965;SDS011;10144;50.874;4.762;2024-03-07T09:48:01;54.53;;;24.10;;
19965;SDS011;10144;50.874;4.762;2024-03-07T09:50:33;60.13;;;24.98;;
19965;SDS011;10144;50.874;4.762;2024-03-07T09:53:12;53.17;;;24.77;;
19965;SDS011;10144;50.874;4.762;2024-03-07T09:55:40;59.85;;;26.65;;
19965;SDS011;10144;50.874;4.762;2024-03-07T09:58:06;58.28;;;24.55;;
19965;SDS011;10144;50.874;4.762;2024-03-07T10:00:40;60.22;;;24.23;;
19965;SDS011;10144;50.874;4.762;2024-03-07T10:03:10;52.88;;;24.25;;
19965;SDS011;10144;50.874;4.762;2024-03-07T10:05:41;79.30;;;32.35;;
19965;SDS011;10144;50.874;4.762;2024-03-07T10:08:09;60.22;;;24.27;;
19965;SDS011;10144;50.874;4.762;2024-03-07T10:10:39;64.25;;;26.98;;
19965;SDS011;10144;50.874;4.762;2024-03-07T10:13:05;64.95;;;27.60;;
19965;SDS011;10144;50.874;4.762;2024-03-07T10:15:36;60.25;;;26.48;;
19965;SDS011;10144;50.874;4.762;2024-03-07T10:18:07;53.75;;;23.90;;
19965;SDS011;10144;50.874;4.762;2024-03-07T10:20:38;54.10;;;24.30;;
19965;SDS011;10144;50.874;4.762;2024-03-07T10:23:07;57.38;;;23.98;;
19965;SDS011;10144;50.874;4.762;2024-03-07T10:25:33;58.70;;;24.55;;
19965;SDS011;10144;50.874;4.762;2024-03-07T10:28:08;53.45;;;23.27;;
19965;SDS011;10144;50.874;4.762;2024-03-07T10:30:41;54.15;;;24.38;;
19965;SDS011;10144;50.874;4.762;2024-03-07T10:33:09;48.80;;;22.25;;
19965;SDS011;10144;50.874;4.762;2024-03-07T10:35:38;51.83;;;24.20;;
19965;SDS011;10144;50.874;4.762;2024-03-07T10:40:33;55.35;;;24.38;;
19965;SDS011;10144;50.874;4.762;2024-03-07T10:45:51;56.47;;;24.13;;
19965;SDS011;10144;50.874;4.762;2024-03-07T10:48:23;55.83;;;23.30;;
19965;SDS011;10144;50.874;4.762;2024-03-07T10:54:09;58.60;;;23.67;;
19965;SDS011;10144;50.874;4.762;2024-03-07T11:04:52;51.67;;;22.67;;
19965;SDS011;10144;50.874;4.762;2024-03-07T11:07:23;59.88;;;24.10;;
19965;SDS011;10144;50.874;4.762;2024-03-07T11:12:24;56.58;;;23.23;;
19965;SDS011;10144;50.874;4.762;2024-03-07T11:17:47;58.92;;;22.80;;
19965;SDS011;10144;50.874;4.762;2024-03-07T11:20:22;56.00;;;23.65;;
19965;SDS011;10144;50.874;4.762;2024-03-07T11:22:54;54.08;;;22.58;;
19965;SDS011;10144;50.874;4.762;2024-03-07T11:25:23;54.53;;;23.52;;
19965;SDS011;10144;50.874;4.762;2024-03-07T11:27:57;51.40;;;22.45;;
19965;SDS011;10144;50.874;4.762;2024-03-07T11:30:25;50.17;;;23.92;;
19965;SDS011;10144;50.874;4.762;2024-03-07T11:32:52;52.13;;;22.90;;
19965;SDS011;10144;50.874;4.762;2024-03-07T11:38:01;50.85;;;20.98;;
19965;SDS011;10144;50.874;4.762;2024-03-07T11:45:31;59.67;;;24.27;;
19965;SDS011;10144;50.874;4.762;2024-03-07T11:48:15;66.67;;;26.30;;
19965;SDS011;10144;50.874;4.762;2024-03-07T11:53:17;61.80;;;23.57;;
19965;SDS011;10144;50.874;4.762;2024-03-07T11:58:16;60.50;;;24.37;;
19965;SDS011;10144;50.874;4.762;2024-03-07T12:00:46;67.23;;;23.70;;
19965;SDS011;10144;50.874;4.762;2024-03-07T12:03:16;53.47;;;22.13;;
19965;SDS011;10144;50.874;4.762;2024-03-07T12:05:49;56.53;;;21.50;;
19965;SDS011;10144;50.874;4.762;2024-03-07T12:08:19;59.30;;;24.63;;
19965;SDS011;10144;50.874;4.762;2024-03-07T12:13:24;57.47;;;22.27;;
19965;SDS011;10144;50.874;4.762;2024-03-07T12:15:53;57.63;;;22.87;;
19965;SDS011;10144;50.874;4.762;2024-03-07T12:20:49;54.83;;;20.57;;
19965;SDS011;10144;50.874;4.762;2024-03-07T12:25:58;59.63;;;22.53;;
19965;SDS011;10144;50.874;4.762;2024-03-07T12:31:02;50.77;;;20.53;;
19965;SDS011;10144;50.874;4.762;2024-03-07T12:36:06;51.80;;;21.20;;
19965;SDS011;10144;50.874;4.762;2024-03-07T12:38:36;53.43;;;22.17;;
19965;SDS011;10144;50.874;4.762;2024-03-07T12:41:09;49.33;;;21.07;;
19965;SDS011;10144;50.874;4.762;2024-03-07T12:43:41;53.50;;;22.07;;
19965;SDS011;10144;50.874;4.762;2024-03-07T12:46:07;50.37;;;21.17;;
19965;SDS011;10144;50.874;4.762;2024-03-07T12:48:40;57.83;;;23.90;;
19965;SDS011;10144;50.874;4.762;2024-03-07T12:51:08;54.17;;;21.57;;
19965;SDS011;10144;50.874;4.762;2024-03-07T12:53:37;51.37;;;21.03;;
19965;SDS011;10144;50.874;4.762;2024-03-07T12:56:06;57.63;;;22.20;;
19965;SDS011;10144;50.874;4.762;2024-03-07T12:58:34;52.37;;;19.03;;
19965;SDS011;10144;50.874;4.762;2024-03-07T13:01:08;49.53;;;18.93;;
19965;SDS011;10144;50.874;4.762;2024-03-07T13:03:35;50.83;;;18.87;;
19965;SDS011;10144;50.874;4.762;2024-03-07T13:06:09;48.03;;;18.23;;
19965;SDS011;10144;50.874;4.762;2024-03-07T13:18:56;46.03;;;19.63;;
19965;SDS011;10144;50.874;4.762;2024-03-07T13:23:52;41.23;;;17.87;;
19965;SDS011;10144;50.874;4.762;2024-03-07T13:26:20;43.00;;;18.63;;
19965;SDS011;10144;50.874;4.762;2024-03-07T13:28:51;41.27;;;18.07;;
19965;SDS011;10144;50.874;4.762;2024-03-07T13:33:48;39.93;;;18.30;;
19965;SDS011;10144;50.874;4.762;2024-03-07T13:36:18;40.63;;;17.20;;
19965;SDS011;10144;50.874;4.762;2024-03-07T13:38:50;42.67;;;16.37;;
19965;SDS011;10144;50.874;4.762;2024-03-07T13:41:23;45.43;;;19.40;;
19965;SDS011;10144;50.874;4.762;2024-03-07T13:43:51;42.17;;;18.57;;
19965;SDS011;10144;50.874;4.762;2024-03-07T13:46:17;45.17;;;18.90;;
19965;SDS011;10144;50.874;4.762;2024-03-07T13:54:21;38.97;;;16.23;;
19965;SDS011;10144;50.874;4.762;2024-03-07T14:29:29;44.03;;;17.10;;
19965;SDS011;10144;50.874;4.762;2024-03-07T14:32:11;43.03;;;17.23;;
19965;SDS011;10144;50.874;4.762;2024-03-07T14:35:22;35.37;;;14.20;;
19965;SDS011;10144;50.874;4.762;2024-03-07T14:37:43;33.83;;;11.90;;
19965;SDS011;10144;50.874;4.762;2024-03-07T14:40:17;42.03;;;16.53;;
19965;SDS011;10144;50.874;4.762;2024-03-07T14:42:45;39.60;;;16.53;;
19965;SDS011;10144;50.874;4.762;2024-03-07T14:47:49;43.47;;;19.48;;
19965;SDS011;10144;50.874;4.762;2024-03-07T14:50:22;42.23;;;18.07;;
19965;SDS011;10144;50.874;4.762;2024-03-07T14:52:54;40.83;;;13.20;;
19965;SDS011;10144;50.874;4.762;2024-03-07T14:57:54;47.70;;;19.57;;
19965;SDS011;10144;50.874;4.762;2024-03-07T15:02:57;47.70;;;15.90;;
19965;SDS011;10144;50.874;4.762;2024-03-07T15:05:25;42.67;;;16.40;;
19965;SDS011;10144;50.874;4.762;2024-03-07T15:08:10;46.23;;;18.07;;
19965;SDS011;10144;50.874;4.762;2024-03-07T15:10:45;32.20;;;11.27;;
19965;SDS011;10144;50.874;4.762;2024-03-07T15:13:14;44.43;;;17.30;;
19965;SDS011;10144;50.874;4.762;2024-03-07T15:15:39;32.93;;;11.50;;
19965;SDS011;10144;50.874;4.762;2024-03-07T15:18:05;41.93;;;14.53;;
19965;SDS011;10144;50.874;4.762;2024-03-07T15:20:31;42.03;;;15.87;;
19965;SDS011;10144;50.874;4.762;2024-03-07T15:22:59;38.80;;;14.50;;
19965;SDS011;10144;50.874;4.762;2024-03-07T15:25:28;37.40;;;13.97;;
19965;SDS011;10144;50.874;4.762;2024-03-07T15:27:56;42.53;;;16.27;;
19965;SDS011;10144;50.874;4.762;2024-03-07T15:30:23;36.10;;;14.13;;
19965;SDS011;10144;50.874;4.762;2024-03-07T15:32:51;38.40;;;13.57;;
19965;SDS011;10144;50.874;4.762;2024-03-07T15:35:21;36.30;;;14.17;;
19965;SDS011;10144;50.874;4.762;2024-03-07T15:37:49;38.43;;;14.87;;
19965;SDS011;10144;50.874;4.762;2024-03-07T15:40:19;32.60;;;13.20;;
19965;SDS011;10144;50.874;4.762;2024-03-07T15:42:47;33.10;;;12.63;;
19965;SDS011;10144;50.874;4.762;2024-03-07T15:47:50;32.00;;;12.40;;
19965;SDS011;10144;50.874;4.762;2024-03-07T15:50:18;40.37;;;14.77;;
19965;SDS011;10144;50.874;4.762;2024-03-07T15:52:48;35.57;;;15.03;;
19965;SDS011;10144;50.874;4.762;2024-03-07T15:57:54;34.80;;;13.97;;
19965;SDS011;10144;50.874;4.762;2024-03-07T16:03:06;37.40;;;11.93;;
19965;SDS011;10144;50.874;4.762;2024-03-07T16:05:42;37.73;;;14.80;;
19965;SDS011;10144;50.874;4.762;2024-03-07T16:08:13;39.23;;;15.07;;
19965;SDS011;10144;50.874;4.762;2024-03-07T16:13:11;35.53;;;15.20;;
19965;SDS011;10144;50.874;4.762;2024-03-07T16:15:42;37.97;;;13.47;;
19965;SDS011;10144;50.874;4.762;2024-03-07T16:20:39;32.03;;;12.67;;
19965;SDS011;10144;50.874;4.762;2024-03-07T16:25:35;35.43;;;14.40;;
19965;SDS011;10144;50.874;4.762;2024-03-07T16:28:10;31.20;;;11.23;;
19965;SDS011;10144;50.874;4.762;2024-03-07T16:30:39;31.27;;;11.83;;
19965;SDS011;10144;50.874;4.762;2024-03-07T16:35:50;31.53;;;12.77;;
19965;SDS011;10144;50.874;4.762;2024-03-07T16:40:48;32.30;;;13.07;;
19965;SDS011;10144;50.874;4.762;2024-03-07T16:43:14;27.07;;;10.10;;
19965;SDS011;10144;50.874;4.762;2024-03-07T16:45:43;25.67;;;10.00;;
19965;SDS011;10144;50.874;4.762;2024-03-07T16:48:16;28.73;;;11.53;;
19965;SDS011;10144;50.874;4.762;2024-03-07T16:50:45;27.20;;;10.07;;
19965;SDS011;10144;50.874;4.762;2024-03-07T16:53:14;24.50;;;9.87;;
19965;SDS011;10144;50.874;4.762;2024-03-07T16:58:13;29.27;;;11.57;;
19965;SDS011;10144;50.874;4.762;2024-03-07T17:00:42;32.23;;;11.63;;
19965;SDS011;10144;50.874;4.762;2024-03-07T17:05:38;19.13;;;8.17;;
19965;SDS011;10144;50.874;4.762;2024-03-07T17:08:10;26.40;;;10.13;;
19965;SDS011;10144;50.874;4.762;2024-03-07T17:10:44;24.50;;;10.57;;
19965;SDS011;10144;50.874;4.762;2024-03-07T17:36:41;31.80;;;12.93;;
19965;SDS011;10144;50.874;4.762;2024-03-07T17:39:09;30.60;;;12.13;;
19965;SDS011;10144;50.874;4.762;2024-03-07T17:41:39;26.23;;;11.93;;
19965;SDS011;10144;50.874;4.762;2024-03-07T17:44:05;27.60;;;10.83;;
19965;SDS011;10144;50.874;4.762;2024-03-07T17:46:36;30.83;;;12.33;;
19965;SDS011;10144;50.874;4.762;2024-03-07T17:49:03;30.37;;;12.63;;
19965;SDS011;10144;50.874;4.762;2024-03-07T17:51:29;30.70;;;12.63;;
19965;SDS011;10144;50.874;4.762;2024-03-07T17:56:37;28.13;;;11.30;;
19965;SDS011;10144;50.874;4.762;2024-03-07T17:59:03;28.50;;;11.97;;
19965;SDS011;10144;50.874;4.762;2024-03-07T18:01:31;29.87;;;11.93;;
19965;SDS011;10144;50.874;4.762;2024-03-07T18:03:57;29.63;;;11.43;;
19965;SDS011;10144;50.874;4.762;2024-03-07T18:06:26;27.33;;;11.10;;
19965;SDS011;10144;50.874;4.762;2024-03-07T18:11:41;31.27;;;12.00;;
19965;SDS011;10144;50.874;4.762;2024-03-07T18:16:38;23.93;;;10.10;;
19965;SDS011;10144;50.874;4.762;2024-03-07T18:19:05;30.70;;;11.70;;
19965;SDS011;10144;50.874;4.762;2024-03-07T18:21:37;29.77;;;11.53;;
19965;SDS011;10144;50.874;4.762;2024-03-07T18:24:09;25.97;;;10.43;;
19965;SDS011;10144;50.874;4.762;2024-03-07T18:29:07;33.07;;;12.10;;
19965;SDS011;10144;50.874;4.762;2024-03-07T18:31:35;30.93;;;11.93;;
19965;SDS011;10144;50.874;4.762;2024-03-07T18:34:18;27.27;;;11.47;;
19965;SDS011;10144;50.874;4.762;2024-03-07T18:36:43;29.90;;;12.07;;
19965;SDS011;10144;50.874;4.762;2024-03-07T18:39:20;31.20;;;12.10;;
19965;SDS011;10144;50.874;4.762;2024-03-07T18:41:52;29.03;;;10.47;;
19965;SDS011;10144;50.874;4.762;2024-03-07T18:47:03;28.73;;;12.00;;
19965;SDS011;10144;50.874;4.762;2024-03-07T18:49:43;32.57;;;12.87;;
19965;SDS011;10144;50.874;4.762;2024-03-07T18:52:15;29.37;;;12.10;;
19965;SDS011;10144;50.874;4.762;2024-03-07T18:54:48;29.77;;;11.57;;
19965;SDS011;10144;50.874;4.762;2024-03-07T18:59:57;32.37;;;12.40;;
19965;SDS011;10144;50.874;4.762;2024-03-07T19:02:36;26.73;;;11.67;;
19965;SDS011;10144;50.874;4.762;2024-03-07T19:07:40;30.20;;;12.27;;
19965;SDS011;10144;50.874;4.762;2024-03-07T19:10:14;27.83;;;12.13;;
19965;SDS011;10144;50.874;4.762;2024-03-07T19:12:54;29.73;;;11.47;;
19965;SDS011;10144;50.874;4.762;2024-03-07T19:15:22;31.27;;;12.00;;